Time;durP1;ratioP1;P1;durP2;ratioP2;P2;SDS_P1;SDS_P2;PMS_P1;PMS_P2;Temp;Humidity;BMP_temperature;BMP_pressure;BME280_temperature;BME280_humidity;BME280_pressure;Samples;Min_cycle;Max_cycle;Signal;HPM_P1;HPM_P2
2022/03/27 00:01:15;;;;;;;13.52;7.18;;;;;;;;;;5073743;28;20108;-37
2022/03/27 00:03:41;;;;;;;12.30;6.82;;;;;;;;;;5074001;28;20032;-37
2022/03/27 00:06:06;;;;;;;11.75;6.97;;;;;;;;;;5073756;28;20504;-38
2022/03/27 00:08:32;;;;;;;10.88;6.60;;;;;;;;;;5073537;28;20471;-37
2022/03/27 00:13:41;;;;;;;10.55;7.55;;;;;;;;;;5073415;28;20036;-37
2022/03/27 00:16:09;;;;;;;12.60;6.88;;;;;;;;;;5073568;28;20031;-37
2022/03/27 00:18:35;;;;;;;10.20;8.13;;;;;;;;;;5073710;28;20060;-38
2022/03/27 00:21:00;;;;;;;17.73;8.27;;;;;;;;;;5073554;28;20437;-38
2022/03/27 00:23:26;;;;;;;13.15;7.40;;;;;;;;;;5072267;28;20075;-37
2022/03/27 00:25:51;;;;;;;16.35;8.30;;;;;;;;;;5073210;28;20042;-38
2022/03/27 00:28:17;;;;;;;11.18;7.05;;;;;;;;;;5073238;28;20039;-37
2022/03/27 00:30:43;;;;;;;12.23;7.22;;;;;;;;;;5071819;28;20100;-37
2022/03/27 00:33:08;;;;;;;16.05;8.55;;;;;;;;;;5073532;28;20181;-38
2022/03/27 00:35:34;;;;;;;16.02;8.43;;;;;;;;;;5073120;28;20027;-37
2022/03/27 00:37:59;;;;;;;12.40;7.80;;;;;;;;;;5073326;28;20402;-37
2022/03/27 00:40:25;;;;;;;12.82;7.03;;;;;;;;;;5073076;28;20028;-37
2022/03/27 00:42:50;;;;;;;21.58;8.88;;;;;;;;;;5071988;28;20375;-37
2022/03/27 00:45:16;;;;;;;14.30;7.38;;;;;;;;;;5073254;28;20043;-37
2022/03/27 00:47:43;;;;;;;13.15;7.38;;;;;;;;;;5072877;28;20475;-37
2022/03/27 00:50:09;;;;;;;12.60;6.80;;;;;;;;;;5072778;28;20417;-37
2022/03/27 00:52:34;;;;;;;14.95;8.68;;;;;;;;;;5072738;28;20053;-37
2022/03/27 00:55:00;;;;;;;10.40;6.75;;;;;;;;;;5072805;28;20032;-37
2022/03/27 00:57:26;;;;;;;14.40;8.25;;;;;;;;;;5072946;28;20056;-37
2022/03/27 00:59:54;;;;;;;11.88;7.43;;;;;;;;;;5072522;28;20490;-37
2022/03/27 01:02:20;;;;;;;11.13;7.18;;;;;;;;;;5072679;28;20050;-37
2022/03/27 01:04:46;;;;;;;11.63;8.00;;;;;;;;;;5072765;28;20024;-37
2022/03/27 01:07:17;;;;;;;10.43;7.15;;;;;;;;;;5072572;28;20430;-38
2022/03/27 01:09:44;;;;;;;14.25;7.72;;;;;;;;;;5072637;28;20055;-37
2022/03/27 01:12:14;;;;;;;15.38;7.75;;;;;;;;;;5072435;28;20040;-37
2022/03/27 01:14:40;;;;;;;17.92;8.02;;;;;;;;;;5072272;28;20036;-38
2022/03/27 01:17:08;;;;;;;13.95;7.15;;;;;;;;;;5072389;28;20021;-37
2022/03/27 01:19:34;;;;;;;16.25;8.55;;;;;;;;;;5072136;28;20074;-37
2022/03/27 01:22:00;;;;;;;12.43;8.18;;;;;;;;;;5072227;28;20532;-37
2022/03/27 01:24:26;;;;;;;17.45;8.13;;;;;;;;;;5072210;28;20035;-37
2022/03/27 01:26:51;;;;;;;14.70;8.15;;;;;;;;;;5072282;28;20020;-37
2022/03/27 01:29:17;;;;;;;14.20;8.48;;;;;;;;;;5072598;28;20032;-37
2022/03/27 01:31:43;;;;;;;14.20;7.95;;;;;;;;;;5071885;28;20025;-37
2022/03/27 01:34:08;;;;;;;10.50;7.57;;;;;;;;;;5071978;28;20044;-37
2022/03/27 01:36:35;;;;;;;12.75;7.97;;;;;;;;;;5072258;28;20021;-37
2022/03/27 01:39:01;;;;;;;11.18;6.45;;;;;;;;;;5071999;28;20020;-37
2022/03/27 01:41:26;;;;;;;13.10;7.88;;;;;;;;;;5070650;28;20028;-37
2022/03/27 01:43:52;;;;;;;10.98;7.53;;;;;;;;;;5071730;28;20548;-38
2022/03/27 01:46:18;;;;;;;14.35;8.27;;;;;;;;;;5072015;28;20607;-37
2022/03/27 01:48:43;;;;;;;13.43;6.80;;;;;;;;;;5072271;28;20560;-37
2022/03/27 01:51:09;;;;;;;15.00;7.97;;;;;;;;;;5071953;28;20017;-37
2022/03/27 01:53:38;;;;;;;12.75;7.30;;;;;;;;;;5070210;28;20056;-37
2022/03/27 01:56:05;;;;;;;15.40;8.23;;;;;;;;;;5071868;28;20370;-38
2022/03/27 01:58:31;;;;;;;17.08;8.60;;;;;;;;;;5071621;28;20041;-37
2022/03/27 02:00:56;;;;;;;13.68;7.80;;;;;;;;;;5071430;28;20042;-37
2022/03/27 02:03:27;;;;;;;15.95;6.93;;;;;;;;;;5071865;28;20607;-37
2022/03/27 02:05:53;;;;;;;12.60;8.23;;;;;;;;;;5071765;28;20024;-37
2022/03/27 02:08:19;;;;;;;14.30;7.95;;;;;;;;;;5071504;28;20012;-37
2022/03/27 02:10:44;;;;;;;18.08;7.70;;;;;;;;;;5071381;28;20071;-37
2022/03/27 02:13:13;;;;;;;11.60;6.45;;;;;;;;;;5071408;28;20019;-37
2022/03/27 02:15:39;;;;;;;15.73;7.55;;;;;;;;;;5071209;28;20045;-37
2022/03/27 02:18:04;;;;;;;13.00;7.97;;;;;;;;;;5071450;28;20051;-37
2022/03/27 02:20:30;;;;;;;14.40;8.27;;;;;;;;;;5071083;28;20047;-37
2022/03/27 02:22:55;;;;;;;14.43;7.72;;;;;;;;;;5071683;28;20020;-37
2022/03/27 02:25:21;;;;;;;16.38;7.60;;;;;;;;;;5071620;28;20040;-38
2022/03/27 02:27:46;;;;;;;15.70;8.45;;;;;;;;;;5071422;28;20382;-37
2022/03/27 02:30:15;;;;;;;11.70;7.70;;;;;;;;;;5071447;28;20470;-37
2022/03/27 02:32:40;;;;;;;12.48;7.43;;;;;;;;;;5071109;28;20062;-38
2022/03/27 02:35:06;;;;;;;15.02;8.15;;;;;;;;;;5069863;28;20037;-38
2022/03/27 02:37:31;;;;;;;16.92;7.22;;;;;;;;;;5071047;28;20040;-38
2022/03/27 02:39:57;;;;;;;11.18;7.25;;;;;;;;;;5071286;28;20119;-37
2022/03/27 02:42:22;;;;;;;11.45;7.75;;;;;;;;;;5071055;28;20388;-37
2022/03/27 02:44:48;;;;;;;13.13;7.95;;;;;;;;;;5071037;28;20036;-38
2022/03/27 02:47:13;;;;;;;16.25;8.02;;;;;;;;;;5071377;28;20025;-37
2022/03/27 02:49:38;;;;;;;13.73;8.10;;;;;;;;;;5071172;28;20665;-38
2022/03/27 02:52:04;;;;;;;13.82;8.02;;;;;;;;;;5071149;28;20072;-37
2022/03/27 02:54:29;;;;;;;17.27;8.38;;;;;;;;;;5071123;28;20036;-37
2022/03/27 02:56:55;;;;;;;16.38;8.65;;;;;;;;;;5071044;28;20463;-38
2022/03/27 02:59:22;;;;;;;13.63;7.72;;;;;;;;;;5069830;28;20028;-38
2022/03/27 03:01:47;;;;;;;13.50;7.65;;;;;;;;;;5070955;28;20114;-37
2022/03/27 03:04:14;;;;;;;13.73;8.77;;;;;;;;;;5071145;28;20764;-38
2022/03/27 03:06:41;;;;;;;15.32;8.20;;;;;;;;;;5072671;28;20017;-37
2022/03/27 03:09:06;;;;;;;12.82;7.72;;;;;;;;;;5075049;28;20032;-37
2022/03/27 03:11:32;;;;;;;14.10;7.85;;;;;;;;;;5074652;28;20104;-38
2022/03/27 03:13:57;;;;;;;12.13;7.40;;;;;;;;;;5074770;28;20032;-37
2022/03/27 03:16:23;;;;;;;16.27;7.63;;;;;;;;;;5074660;28;20025;-37
2022/03/27 03:18:49;;;;;;;15.13;7.88;;;;;;;;;;5074443;28;20025;-37
2022/03/27 03:21:14;;;;;;;22.42;8.20;;;;;;;;;;5074460;28;20031;-38
2022/03/27 03:23:40;;;;;;;13.00;7.43;;;;;;;;;;5074428;28;20021;-36
2022/03/27 03:26:05;;;;;;;15.68;8.07;;;;;;;;;;5074690;28;20097;-36
2022/03/27 03:28:31;;;;;;;20.67;8.50;;;;;;;;;;5074637;28;20082;-37
2022/03/27 03:30:56;;;;;;;19.00;8.07;;;;;;;;;;5074608;28;20032;-37
2022/03/27 03:33:21;;;;;;;14.95;7.57;;;;;;;;;;5074532;28;20119;-37
2022/03/27 03:35:47;;;;;;;10.98;7.10;;;;;;;;;;5074157;28;20024;-37
2022/03/27 03:38:13;;;;;;;12.32;6.55;;;;;;;;;;5074269;28;20475;-38
2022/03/27 03:40:40;;;;;;;17.25;9.18;;;;;;;;;;5074195;28;20040;-37
2022/03/27 03:43:05;;;;;;;13.23;7.70;;;;;;;;;;5074447;28;20032;-38
2022/03/27 03:45:31;;;;;;;13.75;8.40;;;;;;;;;;5074399;28;20528;-37
2022/03/27 03:47:59;;;;;;;13.38;7.82;;;;;;;;;;5073914;28;20379;-37
2022/03/27 03:50:25;;;;;;;13.23;7.68;;;;;;;;;;5073965;28;20021;-38
2022/03/27 03:52:50;;;;;;;10.90;6.95;;;;;;;;;;5073805;28;20128;-37
2022/03/27 03:55:16;;;;;;;10.48;7.38;;;;;;;;;;5073924;28;20131;-37
2022/03/27 03:57:41;;;;;;;11.40;7.13;;;;;;;;;;5073865;28;20390;-37
2022/03/27 04:00:07;;;;;;;14.63;7.75;;;;;;;;;;5073722;28;20033;-37
2022/03/27 04:02:37;;;;;;;16.38;7.53;;;;;;;;;;5073744;28;20079;-37
2022/03/27 04:05:03;;;;;;;15.82;7.82;;;;;;;;;;5073876;28;20482;-37
2022/03/27 04:07:28;;;;;;;12.98;8.38;;;;;;;;;;5073940;28;20029;-37
2022/03/27 04:09:54;;;;;;;12.50;7.50;;;;;;;;;;5073577;28;20020;-37
2022/03/27 04:12:19;;;;;;;15.90;8.15;;;;;;;;;;5073600;28;20031;-37
2022/03/27 04:14:45;;;;;;;18.85;9.43;;;;;;;;;;5073744;28;20017;-37
2022/03/27 04:17:11;;;;;;;10.60;6.78;;;;;;;;;;5072000;28;20509;-37
2022/03/27 04:19:37;;;;;;;16.42;8.00;;;;;;;;;;5072866;28;20044;-37
2022/03/27 04:22:03;;;;;;;17.50;7.70;;;;;;;;;;5073473;28;20016;-37
2022/03/27 04:24:29;;;;;;;13.23;6.80;;;;;;;;;;5073701;28;20028;-37
2022/03/27 04:26:54;;;;;;;19.40;7.68;;;;;;;;;;5073309;28;20512;-37
2022/03/27 04:29:19;;;;;;;13.75;7.75;;;;;;;;;;5073265;28;20017;-37
2022/03/27 04:31:45;;;;;;;12.95;8.10;;;;;;;;;;5073479;28;20042;-38
2022/03/27 04:34:10;;;;;;;14.13;6.82;;;;;;;;;;5073235;28;20482;-38
2022/03/27 04:36:36;;;;;;;16.23;6.93;;;;;;;;;;5073087;28;20037;-37
2022/03/27 04:39:02;;;;;;;18.60;8.35;;;;;;;;;;5073262;28;20024;-37
2022/03/27 04:41:28;;;;;;;13.00;8.38;;;;;;;;;;5073112;28;20035;-37
2022/03/27 04:43:53;;;;;;;15.32;8.15;;;;;;;;;;5073145;28;20017;-37
2022/03/27 04:46:18;;;;;;;15.40;7.72;;;;;;;;;;5073282;28;20103;-37
2022/03/27 04:48:45;;;;;;;14.52;7.88;;;;;;;;;;5072936;28;20017;-37
2022/03/27 04:51:11;;;;;;;11.82;7.30;;;;;;;;;;5072881;28;20476;-37
2022/03/27 04:53:36;;;;;;;13.82;7.30;;;;;;;;;;5072676;28;20121;-37
2022/03/27 04:56:02;;;;;;;18.25;8.18;;;;;;;;;;5072838;28;20467;-38
2022/03/27 04:58:27;;;;;;;14.25;7.15;;;;;;;;;;5072894;28;20017;-37
2022/03/27 05:00:53;;;;;;;15.07;8.80;;;;;;;;;;5072521;28;20439;-37
2022/03/27 05:03:18;;;;;;;21.08;9.55;;;;;;;;;;5072578;28;20072;-37
2022/03/27 05:05:44;;;;;;;15.40;8.30;;;;;;;;;;5072506;28;20043;-37
2022/03/27 05:08:10;;;;;;;15.45;8.13;;;;;;;;;;5072628;28;20056;-37
2022/03/27 05:10:35;;;;;;;14.32;6.93;;;;;;;;;;5072353;28;20368;-37
2022/03/27 05:13:01;;;;;;;17.48;7.68;;;;;;;;;;5072399;28;20021;-37
2022/03/27 05:15:27;;;;;;;14.98;7.47;;;;;;;;;;5072442;28;20033;-37
2022/03/27 05:17:55;;;;;;;16.98;8.30;;;;;;;;;;5072251;28;20020;-38
2022/03/27 05:20:22;;;;;;;13.30;6.28;;;;;;;;;;5072416;28;20459;-37
2022/03/27 05:22:48;;;;;;;17.95;7.97;;;;;;;;;;5072101;28;20079;-37
2022/03/27 05:25:15;;;;;;;17.13;8.93;;;;;;;;;;5072426;28;20119;-37
2022/03/27 05:27:47;;;;;;;14.43;8.15;;;;;;;;;;5072020;28;20534;-37
2022/03/27 05:30:17;;;;;;;14.50;8.82;;;;;;;;;;5072228;28;20039;-38
2022/03/27 05:32:42;;;;;;;17.83;7.57;;;;;;;;;;5072374;28;20107;-37
2022/03/27 05:35:08;;;;;;;17.98;8.52;;;;;;;;;;5072349;28;20119;-37
2022/03/27 05:37:41;;;;;;;23.70;9.15;;;;;;;;;;5072637;28;20020;-38
2022/03/27 05:40:07;;;;;;;16.45;8.02;;;;;;;;;;5071981;28;20036;-38
2022/03/27 05:42:33;;;;;;;16.63;8.77;;;;;;;;;;5072358;28;20020;-37
2022/03/27 05:44:59;;;;;;;13.65;7.32;;;;;;;;;;5070786;28;20024;-37
2022/03/27 05:47:25;;;;;;;17.63;8.75;;;;;;;;;;5071732;28;20017;-37
2022/03/27 05:49:51;;;;;;;12.43;8.23;;;;;;;;;;5071825;28;20039;-38
2022/03/27 05:52:17;;;;;;;16.30;8.57;;;;;;;;;;5071345;28;20052;-37
2022/03/27 05:54:43;;;;;;;17.13;9.40;;;;;;;;;;5071605;28;20490;-37
2022/03/27 05:57:09;;;;;;;19.95;7.85;;;;;;;;;;5071939;28;20025;-36
2022/03/27 05:59:37;;;;;;;16.10;6.40;;;;;;;;;;5071199;28;20174;-37
2022/03/27 06:02:03;;;;;;;12.05;8.52;;;;;;;;;;5071377;28;20382;-37
2022/03/27 06:04:29;;;;;;;18.33;7.90;;;;;;;;;;5071370;28;20037;-37
2022/03/27 06:06:55;;;;;;;16.02;9.60;;;;;;;;;;5071362;28;20012;-37
2022/03/27 06:09:20;;;;;;;17.42;8.48;;;;;;;;;;5069939;28;20051;-37
2022/03/27 06:11:46;;;;;;;14.80;7.50;;;;;;;;;;5070800;28;20024;-37
2022/03/27 06:14:12;;;;;;;10.95;6.97;;;;;;;;;;5071243;28;20028;-38
2022/03/27 06:16:38;;;;;;;14.77;8.52;;;;;;;;;;5071127;28;20021;-37
2022/03/27 06:19:04;;;;;;;12.05;8.13;;;;;;;;;;5071440;28;20028;-37
2022/03/27 06:21:29;;;;;;;16.65;8.57;;;;;;;;;;5071053;28;20031;-37
2022/03/27 06:23:55;;;;;;;14.25;7.93;;;;;;;;;;5070967;28;20040;-37
2022/03/27 06:26:21;;;;;;;12.23;7.28;;;;;;;;;;5071086;28;20048;-37
2022/03/27 06:28:47;;;;;;;15.23;8.30;;;;;;;;;;5071002;28;20074;-37
2022/03/27 06:31:13;;;;;;;11.82;7.07;;;;;;;;;;5071411;28;20029;-37
2022/03/27 06:33:39;;;;;;;12.00;7.13;;;;;;;;;;5071186;28;20540;-37
2022/03/27 06:36:04;;;;;;;17.88;8.50;;;;;;;;;;5070913;28;20048;-37
2022/03/27 06:38:30;;;;;;;15.95;8.15;;;;;;;;;;5070801;28;20036;-38
2022/03/27 06:40:55;;;;;;;16.98;8.20;;;;;;;;;;5071498;28;20028;-38
2022/03/27 06:43:22;;;;;;;17.00;8.70;;;;;;;;;;5075218;28;20028;-37
2022/03/27 06:45:51;;;;;;;14.95;7.65;;;;;;;;;;5074915;28;20039;-37
2022/03/27 06:48:17;;;;;;;14.57;8.05;;;;;;;;;;5075042;28;20033;-37
2022/03/27 06:50:44;;;;;;;11.57;7.32;;;;;;;;;;5074849;28;20021;-38
2022/03/27 06:53:10;;;;;;;13.20;7.57;;;;;;;;;;5074587;28;20056;-38
2022/03/27 06:55:39;;;;;;;12.13;7.53;;;;;;;;;;5073581;28;20201;-37
2022/03/27 06:58:07;;;;;;;13.45;8.23;;;;;;;;;;5074853;28;20028;-38
2022/03/27 07:03:17;;;;;;;13.32;7.22;;;;;;;;;;5075025;28;20421;-37
2022/03/27 07:05:43;;;;;;;12.20;7.72;;;;;;;;;;5074809;28;20020;-38
2022/03/27 07:08:10;;;;;;;16.15;7.88;;;;;;;;;;5074686;28;20471;-37
2022/03/27 07:10:37;;;;;;;16.00;8.23;;;;;;;;;;5074486;28;20039;-37
2022/03/27 07:13:08;;;;;;;11.07;7.63;;;;;;;;;;5074472;28;20062;-38
2022/03/27 07:15:34;;;;;;;15.45;7.85;;;;;;;;;;5074838;28;20036;-38
2022/03/27 07:18:00;;;;;;;11.50;6.82;;;;;;;;;;5074341;28;20501;-37
2022/03/27 07:20:27;;;;;;;15.73;7.88;;;;;;;;;;5074112;28;20040;-37
2022/03/27 07:22:53;;;;;;;16.70;8.15;;;;;;;;;;5074227;28;20485;-37
2022/03/27 07:25:20;;;;;;;12.43;7.95;;;;;;;;;;5074210;28;20107;-37
2022/03/27 07:27:45;;;;;;;13.52;7.22;;;;;;;;;;5074500;28;20108;-37
2022/03/27 07:30:11;;;;;;;16.58;9.00;;;;;;;;;;5074209;28;20127;-37
2022/03/27 07:32:37;;;;;;;15.65;7.90;;;;;;;;;;5073970;28;20016;-37
2022/03/27 07:35:07;;;;;;;17.77;9.35;;;;;;;;;;5073034;28;20037;-37
2022/03/27 07:37:39;;;;;;;13.27;7.43;;;;;;;;;;5074070;28;20086;-37
2022/03/27 07:40:08;;;;;;;11.82;7.32;;;;;;;;;;5073871;28;20028;-37
2022/03/27 07:42:37;;;;;;;14.05;8.13;;;;;;;;;;5073905;28;20017;-37
2022/03/27 07:45:04;;;;;;;17.65;8.32;;;;;;;;;;5073913;28;20024;-37
2022/03/27 07:47:30;;;;;;;14.10;7.03;;;;;;;;;;5073964;28;20103;-37
2022/03/27 07:49:55;;;;;;;15.23;7.45;;;;;;;;;;5073800;28;20107;-37
2022/03/27 07:52:22;;;;;;;13.88;7.55;;;;;;;;;;5073354;28;20490;-37
2022/03/27 07:54:52;;;;;;;14.77;7.38;;;;;;;;;;5073946;28;20394;-37
2022/03/27 07:57:17;;;;;;;14.82;7.47;;;;;;;;;;5073676;28;20498;-37
2022/03/27 07:59:43;;;;;;;15.18;9.43;;;;;;;;;;5073747;28;20032;-36
2022/03/27 08:02:10;;;;;;;14.52;8.60;;;;;;;;;;5073735;28;20020;-37
2022/03/27 08:04:39;;;;;;;18.35;8.82;;;;;;;;;;5073642;28;20041;-37
2022/03/27 08:07:04;;;;;;;17.02;8.43;;;;;;;;;;5073695;28;20016;-37
2022/03/27 08:09:31;;;;;;;17.95;8.82;;;;;;;;;;5073386;28;20120;-37
2022/03/27 08:11:57;;;;;;;14.90;7.65;;;;;;;;;;5073323;28;20028;-37
2022/03/27 08:14:28;;;;;;;15.48;7.68;;;;;;;;;;5073359;28;20062;-38
2022/03/27 08:16:55;;;;;;;15.20;8.85;;;;;;;;;;5073160;28;20033;-37
2022/03/27 08:19:20;;;;;;;11.43;6.88;;;;;;;;;;5073463;28;20021;-37
2022/03/27 08:21:49;;;;;;;14.25;6.38;;;;;;;;;;5071925;28;20040;-37
2022/03/27 08:24:15;;;;;;;13.60;7.32;;;;;;;;;;5073318;28;20031;-36
2022/03/27 08:26:55;;;;;;;15.43;7.90;;;;;;;;;;5071742;28;20032;-37
2022/03/27 08:29:24;;;;;;;13.30;7.95;;;;;;;;;;5073174;28;20686;-37
2022/03/27 08:31:50;;;;;;;20.05;8.10;;;;;;;;;;5073284;28;20028;-37
2022/03/27 08:34:18;;;;;;;15.85;8.32;;;;;;;;;;5073394;28;20146;-37
2022/03/27 08:36:44;;;;;;;15.15;7.50;;;;;;;;;;5073036;28;20028;-37
2022/03/27 08:39:10;;;;;;;18.45;8.77;;;;;;;;;;5072755;28;20033;-37
2022/03/27 08:41:36;;;;;;;14.10;8.40;;;;;;;;;;5073117;28;20036;-38
2022/03/27 08:44:02;;;;;;;16.27;7.22;;;;;;;;;;5072763;28;20029;-39
2022/03/27 08:46:29;;;;;;;13.85;7.15;;;;;;;;;;5073009;28;20031;-37
2022/03/27 08:49:01;;;;;;;18.08;9.07;;;;;;;;;;5071414;28;20451;-37
2022/03/27 08:51:28;;;;;;;17.98;8.13;;;;;;;;;;5073096;28;20477;-37
2022/03/27 08:54:00;;;;;;;17.00;8.45;;;;;;;;;;5072361;28;20040;-37
2022/03/27 08:56:28;;;;;;;20.50;8.70;;;;;;;;;;5072909;28;20063;-37
2022/03/27 08:58:55;;;;;;;22.92;7.78;;;;;;;;;;5072474;28;20360;-37
2022/03/27 09:01:21;;;;;;;18.95;7.60;;;;;;;;;;5072318;28;20101;-37
2022/03/27 09:03:47;;;;;;;22.63;7.75;;;;;;;;;;5071665;28;20462;-37
2022/03/27 09:06:12;;;;;;;17.08;7.32;;;;;;;;;;5072375;28;20024;-38
2022/03/27 09:08:38;;;;;;;16.80;7.30;;;;;;;;;;5072174;28;20025;-38
2022/03/27 09:11:04;;;;;;;19.35;8.52;;;;;;;;;;5072609;28;20085;-37
2022/03/27 09:13:30;;;;;;;21.33;8.18;;;;;;;;;;5072215;28;20018;-38
2022/03/27 09:15:58;;;;;;;19.63;8.27;;;;;;;;;;5072010;28;20545;-38
2022/03/27 09:18:41;;;;;;;14.70;8.05;;;;;;;;;;5072075;28;20052;-37
2022/03/27 09:21:07;;;;;;;17.90;9.05;;;;;;;;;;5072065;28;20048;-38
2022/03/27 09:23:34;;;;;;;19.65;8.93;;;;;;;;;;5071883;28;20540;-37
2022/03/27 09:25:59;;;;;;;14.40;8.23;;;;;;;;;;5072168;28;20128;-38
2022/03/27 09:28:36;;;;;;;17.17;8.10;;;;;;;;;;5071876;28;20103;-37
2022/03/27 09:31:04;;;;;;;19.95;8.60;;;;;;;;;;5071787;28;20074;-37
2022/03/27 09:33:46;;;;;;;19.45;8.38;;;;;;;;;;5071894;28;20046;-37
2022/03/27 09:36:14;;;;;;;17.67;8.05;;;;;;;;;;5072020;28;20033;-38
2022/03/27 09:38:40;;;;;;;15.70;8.07;;;;;;;;;;5071687;28;20482;-37
2022/03/27 09:41:10;;;;;;;20.92;8.52;;;;;;;;;;5071908;28;20364;-37
2022/03/27 09:43:36;;;;;;;15.82;8.07;;;;;;;;;;5071655;28;20020;-37
2022/03/27 09:46:03;;;;;;;16.08;7.97;;;;;;;;;;5071467;28;20082;-37
2022/03/27 09:48:31;;;;;;;17.45;7.70;;;;;;;;;;5070297;28;20031;-37
2022/03/27 09:51:00;;;;;;;19.25;7.78;;;;;;;;;;5071771;28;20036;-37
2022/03/27 09:53:31;;;;;;;14.27;7.18;;;;;;;;;;5071563;28;20410;-37
2022/03/27 09:56:00;;;;;;;16.40;6.75;;;;;;;;;;5070572;28;20032;-37
2022/03/27 09:58:34;;;;;;;20.15;7.97;;;;;;;;;;5071735;28;20048;-37
2022/03/27 10:01:12;;;;;;;15.25;8.05;;;;;;;;;;5071400;28;20071;-37
2022/03/27 10:04:02;;;;;;;13.20;7.18;;;;;;;;;;5071344;28;20124;-37
2022/03/27 10:06:31;;;;;;;15.82;8.68;;;;;;;;;;5071638;28;20111;-37
2022/03/27 10:08:58;;;;;;;22.85;9.70;;;;;;;;;;5071281;28;20025;-37
2022/03/27 10:11:27;;;;;;;16.58;7.63;;;;;;;;;;5071307;28;20036;-37
2022/03/27 10:13:56;;;;;;;17.23;8.43;;;;;;;;;;5071300;28;20013;-37
2022/03/27 10:16:24;;;;;;;15.95;7.30;;;;;;;;;;5071273;28;20078;-37
2022/03/27 10:18:54;;;;;;;16.33;7.60;;;;;;;;;;5070984;28;20019;-37
2022/03/27 10:21:28;;;;;;;15.32;8.45;;;;;;;;;;5071285;28;20075;-37
2022/03/27 10:24:11;;;;;;;15.73;7.25;;;;;;;;;;5071149;28;20674;-37
2022/03/27 10:26:37;;;;;;;21.48;7.18;;;;;;;;;;5071207;28;20071;-37
2022/03/27 10:29:04;;;;;;;17.58;8.48;;;;;;;;;;5071043;28;20470;-37
2022/03/27 10:31:30;;;;;;;12.45;7.00;;;;;;;;;;5071186;28;20040;-37
2022/03/27 10:33:59;;;;;;;15.15;7.00;;;;;;;;;;5070837;28;20032;-37
2022/03/27 10:36:32;;;;;;;17.10;7.93;;;;;;;;;;5071358;28;20024;-37
2022/03/27 10:39:08;;;;;;;16.70;8.32;;;;;;;;;;5070933;28;20619;-37
2022/03/27 10:41:53;;;;;;;14.55;7.93;;;;;;;;;;5070967;28;20076;-37
2022/03/27 10:44:36;;;;;;;16.95;7.25;;;;;;;;;;5070835;28;20051;-37
2022/03/27 10:47:21;;;;;;;17.27;8.13;;;;;;;;;;5070815;28;20025;-37
2022/03/27 10:50:06;;;;;;;17.73;9.00;;;;;;;;;;5070730;28;20032;-37
2022/03/27 10:52:53;;;;;;;14.27;7.80;;;;;;;;;;5070552;28;20052;-37
2022/03/27 10:55:19;;;;;;;18.27;8.32;;;;;;;;;;5063443;28;20036;-37
2022/03/27 10:57:48;;;;;;;17.63;8.85;;;;;;;;;;5070959;28;20023;-37
2022/03/27 11:00:15;;;;;;;16.02;8.25;;;;;;;;;;5070603;28;20111;-37
2022/03/27 11:02:46;;;;;;;19.60;8.93;;;;;;;;;;5070528;28;20029;-37
2022/03/27 11:05:36;;;;;;;14.23;8.02;;;;;;;;;;5070643;28;20025;-37
2022/03/27 11:08:17;;;;;;;15.10;8.18;;;;;;;;;;5070724;28;20028;-37
2022/03/27 11:10:51;;;;;;;16.63;8.48;;;;;;;;;;5070564;28;20024;-37
2022/03/27 11:13:28;;;;;;;19.30;8.63;;;;;;;;;;5070997;28;20036;-37
2022/03/27 11:16:13;;;;;;;14.38;9.02;;;;;;;;;;5070552;28;20037;-38
2022/03/27 11:18:40;;;;;;;18.13;9.43;;;;;;;;;;5070626;28;20028;-37
2022/03/27 11:21:07;;;;;;;15.15;8.88;;;;;;;;;;5070628;28;20029;-37
2022/03/27 11:23:36;;;;;;;16.63;9.38;;;;;;;;;;5069032;28;20024;-37
2022/03/27 11:26:03;;;;;;;23.20;10.02;;;;;;;;;;5070565;28;20016;-37
2022/03/27 11:28:49;;;;;;;20.85;9.00;;;;;;;;;;5073324;28;20025;-37
2022/03/27 11:31:19;;;;;;;17.40;8.98;;;;;;;;;;5074293;28;20611;-38
2022/03/27 11:34:04;;;;;;;16.98;8.80;;;;;;;;;;5073046;28;20371;-37
2022/03/27 11:36:31;;;;;;;18.80;8.93;;;;;;;;;;5073925;28;20043;-38
2022/03/27 11:39:02;;;;;;;13.00;7.70;;;;;;;;;;5072681;28;20432;-38
2022/03/27 11:41:34;;;;;;;16.48;9.30;;;;;;;;;;5074065;28;20553;-37
2022/03/27 11:44:15;;;;;;;13.60;8.70;;;;;;;;;;5073828;28;20493;-38
2022/03/27 11:46:43;;;;;;;14.10;8.70;;;;;;;;;;5073820;28;20077;-37
2022/03/27 11:49:08;;;;;;;19.73;9.63;;;;;;;;;;5072857;28;20017;-37
2022/03/27 11:51:37;;;;;;;17.05;8.88;;;;;;;;;;5072398;28;20059;-38
2022/03/27 11:54:15;;;;;;;16.10;8.40;;;;;;;;;;5072154;28;20550;-38
2022/03/27 11:56:54;;;;;;;17.40;8.25;;;;;;;;;;5074043;28;20032;-38
2022/03/27 11:59:19;;;;;;;15.80;7.97;;;;;;;;;;5073585;28;20043;-38
2022/03/27 12:02:01;;;;;;;14.75;8.95;;;;;;;;;;5073567;28;20402;-37
2022/03/27 12:04:27;;;;;;;16.50;8.77;;;;;;;;;;5073701;28;20036;-37
2022/03/27 12:06:56;;;;;;;18.42;9.93;;;;;;;;;;5073900;28;20028;-37
2022/03/27 12:09:26;;;;;;;16.42;8.35;;;;;;;;;;5072088;28;20041;-37
2022/03/27 12:12:11;;;;;;;15.85;7.43;;;;;;;;;;5073424;28;20032;-37
2022/03/27 12:14:56;;;;;;;16.08;8.48;;;;;;;;;;5072986;28;20048;-37
2022/03/27 12:17:22;;;;;;;19.05;8.55;;;;;;;;;;5073532;28;20103;-38
2022/03/27 12:20:08;;;;;;;13.43;7.78;;;;;;;;;;5073032;28;20093;-37
2022/03/27 12:22:34;;;;;;;18.42;8.60;;;;;;;;;;5073479;28;20108;-37
2022/03/27 12:24:59;;;;;;;15.73;7.88;;;;;;;;;;5073225;28;20441;-37
2022/03/27 12:30:10;;;;;;;15.93;7.93;;;;;;;;;;5073078;28;20086;-37
2022/03/27 12:32:36;;;;;;;15.25;7.88;;;;;;;;;;5073041;28;20021;-38
2022/03/27 12:35:02;;;;;;;16.30;8.02;;;;;;;;;;5072866;28;20071;-35
2022/03/27 12:37:30;;;;;;;14.20;8.20;;;;;;;;;;5073327;28;20470;-35
2022/03/27 12:39:56;;;;;;;14.07;8.48;;;;;;;;;;5071750;28;20036;-35
2022/03/27 12:42:38;;;;;;;20.90;8.57;;;;;;;;;;5073151;28;20016;-35
2022/03/27 12:45:10;;;;;;;13.05;8.38;;;;;;;;;;5073041;28;20115;-35
2022/03/27 12:47:37;;;;;;;13.77;8.25;;;;;;;;;;5073035;28;20063;-35
2022/03/27 12:50:06;;;;;;;14.85;8.48;;;;;;;;;;5072853;28;20012;-35
2022/03/27 12:52:32;;;;;;;13.77;8.05;;;;;;;;;;5072715;28;20140;-35
2022/03/27 12:55:05;;;;;;;11.95;7.35;;;;;;;;;;5072776;28;20060;-35
2022/03/27 12:57:51;;;;;;;16.00;9.70;;;;;;;;;;5072815;28;20075;-35
2022/03/27 13:00:18;;;;;;;18.13;8.30;;;;;;;;;;5072659;28;20053;-35
2022/03/27 13:02:43;;;;;;;17.90;8.85;;;;;;;;;;5072527;28;20027;-38
2022/03/27 13:05:16;;;;;;;19.15;9.15;;;;;;;;;;5072616;28;20446;-35
2022/03/27 13:07:54;;;;;;;14.88;8.95;;;;;;;;;;5072668;28;20025;-35
2022/03/27 13:10:21;;;;;;;18.45;9.18;;;;;;;;;;5072549;28;20029;-35
2022/03/27 13:12:55;;;;;;;14.32;8.88;;;;;;;;;;5072747;28;20040;-35
2022/03/27 13:15:40;;;;;;;16.80;9.05;;;;;;;;;;5072807;28;20367;-35
2022/03/27 13:18:06;;;;;;;15.05;8.02;;;;;;;;;;5072233;28;20036;-35
2022/03/27 13:20:33;;;;;;;17.17;8.95;;;;;;;;;;5072297;28;20396;-36
2022/03/27 13:22:59;;;;;;;16.02;9.20;;;;;;;;;;5072251;28;20070;-35
2022/03/27 13:25:25;;;;;;;18.98;8.50;;;;;;;;;;5072434;28;20615;-35
2022/03/27 13:27:51;;;;;;;23.48;9.52;;;;;;;;;;5070763;28;20409;-35
2022/03/27 13:30:17;;;;;;;19.23;9.40;;;;;;;;;;5070888;28;20029;-35
2022/03/27 13:32:43;;;;;;;18.63;9.70;;;;;;;;;;5072055;28;20031;-35
2022/03/27 13:35:09;;;;;;;16.15;9.23;;;;;;;;;;5072150;28;20366;-35
2022/03/27 13:37:34;;;;;;;16.25;9.27;;;;;;;;;;5070728;28;20074;-35
2022/03/27 13:40:00;;;;;;;16.38;8.88;;;;;;;;;;5070493;28;20032;-35
2022/03/27 13:45:09;;;;;;;14.80;8.98;;;;;;;;;;5071854;28;20039;-35
2022/03/27 13:47:35;;;;;;;18.20;9.18;;;;;;;;;;5070698;28;20107;-35
2022/03/27 13:50:01;;;;;;;19.17;10.20;;;;;;;;;;5071417;28;20046;-36
2022/03/27 13:52:27;;;;;;;18.67;9.80;;;;;;;;;;5071594;28;20057;-35
2022/03/27 13:54:53;;;;;;;18.73;8.95;;;;;;;;;;5071934;28;20028;-35
2022/03/27 13:57:19;;;;;;;15.75;10.52;;;;;;;;;;5071702;28;20079;-35
2022/03/27 13:59:44;;;;;;;18.63;9.00;;;;;;;;;;5071433;28;20036;-35
2022/03/27 14:02:10;;;;;;;15.73;8.57;;;;;;;;;;5071654;28;20448;-35
2022/03/27 14:04:36;;;;;;;18.60;10.50;;;;;;;;;;5071580;28;20039;-35
2022/03/27 14:07:05;;;;;;;20.10;8.80;;;;;;;;;;5071455;28;20025;-35
2022/03/27 14:09:31;;;;;;;17.20;8.68;;;;;;;;;;5071504;28;20036;-35
2022/03/27 14:11:57;;;;;;;19.63;9.45;;;;;;;;;;5070288;28;20027;-36
2022/03/27 14:14:23;;;;;;;18.67;9.38;;;;;;;;;;5071511;28;20028;-35
2022/03/27 14:16:53;;;;;;;19.17;9.77;;;;;;;;;;5071498;28;20024;-35
2022/03/27 14:19:19;;;;;;;13.20;8.82;;;;;;;;;;5071334;28;20478;-35
2022/03/27 14:21:45;;;;;;;12.98;8.98;;;;;;;;;;5071382;28;20036;-36
2022/03/27 14:24:12;;;;;;;17.00;8.00;;;;;;;;;;5071435;28;20028;-35
2022/03/27 14:26:38;;;;;;;19.65;9.38;;;;;;;;;;5071659;28;20441;-35
2022/03/27 14:29:04;;;;;;;14.57;9.10;;;;;;;;;;5069939;28;20033;-36
2022/03/27 14:31:29;;;;;;;16.33;8.63;;;;;;;;;;5071298;28;20047;-35
2022/03/27 14:33:55;;;;;;;17.95;9.30;;;;;;;;;;5069977;28;20511;-35
2022/03/27 14:36:21;;;;;;;18.73;9.55;;;;;;;;;;5071274;28;20080;-35
2022/03/27 14:38:46;;;;;;;19.40;9.32;;;;;;;;;;5071330;28;20036;-35
2022/03/27 14:41:12;;;;;;;18.38;8.98;;;;;;;;;;5071173;28;20035;-35
2022/03/27 14:43:38;;;;;;;14.27;8.82;;;;;;;;;;5071492;28;20028;-35
2022/03/27 14:46:03;;;;;;;16.35;9.02;;;;;;;;;;5071388;28;20771;-35